createdAt,value
2022-11-19T00:02:02.653Z,90.81
2022-11-19T00:04:30.852Z,90.47
2022-11-19T00:07:03.558Z,89.62
2022-11-19T00:09:33.774Z,88.49
2022-11-19T00:12:20.277Z,88.00
2022-11-19T00:14:51.634Z,87.10
2022-11-19T00:17:19.492Z,86.97
2022-11-19T00:19:47.471Z,87.01
2022-11-19T00:22:16.559Z,86.85
2022-11-19T00:24:45.757Z,86.53
2022-11-19T00:27:18.481Z,85.68
2022-11-19T00:29:47.540Z,85.41
2022-11-19T00:32:15.605Z,85.32
2022-11-19T00:34:43.786Z,85.22
2022-11-19T00:37:11.859Z,85.01
2022-11-19T00:39:41.085Z,85.10
2022-11-19T00:42:36.266Z,84.85
2022-11-19T00:45:08.868Z,84.29
2022-11-19T00:47:36.911Z,84.17
2022-11-19T00:50:05.808Z,83.63
2022-11-19T00:52:33.881Z,83.94
2022-11-19T00:55:31.543Z,84.46
2022-11-19T00:58:00.741Z,84.48
2022-11-19T01:00:29.124Z,84.66
2022-11-19T01:03:47.487Z,85.06
2022-11-19T01:06:19.675Z,85.21
2022-11-19T01:09:18.756Z,85.18
2022-11-19T01:11:47.046Z,85.18
2022-11-19T01:14:15.094Z,84.41
2022-11-19T01:16:43.253Z,84.70
2022-11-19T01:19:16.569Z,84.47
2022-11-19T01:21:45.039Z,84.40
2022-11-19T01:24:13.013Z,84.31
2022-11-19T01:26:46.270Z,84.34
2022-11-19T01:29:14.589Z,84.13
2022-11-19T01:31:44.803Z,83.86
2022-11-19T01:34:38.026Z,83.87
2022-11-19T01:37:06.025Z,83.83
2022-11-19T01:39:59.705Z,83.97
2022-11-19T01:42:51.732Z,84.09
2022-11-19T01:45:35.105Z,84.13
2022-11-19T01:48:30.077Z,84.41
2022-11-19T01:51:31.224Z,84.29
2022-11-19T01:54:11.071Z,84.23
2022-11-19T01:56:39.860Z,83.95
2022-11-19T01:59:14.374Z,84.27
2022-11-19T02:01:44.595Z,84.42
2022-11-19T02:04:15.739Z,84.37
2022-11-19T02:06:45.291Z,84.55
2022-11-19T02:09:13.544Z,84.60
2022-11-19T02:11:54.142Z,84.60
2022-11-19T02:14:53.415Z,84.78
2022-11-19T02:17:52.184Z,85.00
2022-11-19T02:20:38.379Z,84.42
2022-11-19T02:23:06.453Z,84.49
2022-11-19T02:25:52.650Z,84.39
2022-11-19T02:28:43.667Z,84.59
2022-11-19T02:31:21.259Z,84.75
2022-11-19T02:34:16.582Z,84.73
2022-11-19T02:36:58.269Z,84.57
2022-11-19T02:39:52.375Z,84.53
2022-11-19T02:42:29.180Z,84.60
2022-11-19T02:45:00.117Z,84.57
2022-11-19T02:48:01.203Z,84.62
2022-11-19T02:50:36.233Z,84.71
2022-11-19T02:53:05.132Z,84.72
2022-11-19T02:55:38.121Z,84.67
2022-11-19T02:58:09.050Z,84.68
2022-11-19T03:01:07.201Z,84.81
2022-11-19T03:03:54.757Z,85.10
2022-11-19T03:06:49.563Z,84.98
2022-11-19T03:09:22.741Z,85.22
2022-11-19T03:11:59.735Z,85.56
2022-11-19T03:14:57.810Z,85.48
2022-11-19T03:17:35.285Z,85.53
2022-11-19T03:20:41.775Z,85.47
2022-11-19T03:23:24.075Z,85.41
2022-11-19T03:26:05.569Z,85.37
2022-11-19T03:28:38.055Z,85.42
2022-11-19T03:31:10.616Z,85.39
2022-11-19T03:33:49.546Z,85.35
2022-11-19T03:36:22.190Z,85.32
2022-11-19T03:38:55.702Z,85.27
2022-11-19T03:41:30.933Z,85.30
2022-11-19T03:44:04.790Z,85.32
2022-11-19T03:46:36.183Z,85.53
2022-11-19T03:49:08.984Z,85.68
2022-11-19T03:51:50.286Z,85.89
2022-11-19T03:54:18.353Z,86.01
2022-11-19T03:56:48.678Z,86.41
2022-11-19T03:59:17.855Z,86.52
2022-11-19T04:02:16.783Z,86.51
2022-11-19T04:04:48.535Z,86.64
2022-11-19T04:07:20.675Z,86.82
2022-11-19T04:09:49.817Z,86.76
2022-11-19T04:12:48.481Z,86.53
2022-11-19T04:15:17.074Z,86.54
2022-11-19T04:17:45.148Z,86.56
2022-11-19T04:20:13.525Z,86.52
2022-11-19T04:22:42.326Z,86.39
2022-11-19T04:25:14.891Z,86.26
2022-11-19T04:27:45.708Z,86.08
2022-11-19T04:30:15.442Z,86.04
2022-11-19T04:33:09.519Z,86.06
2022-11-19T04:35:37.489Z,86.03
2022-11-19T04:38:05.563Z,86.02
2022-11-19T04:40:33.530Z,85.81
2022-11-19T04:43:01.499Z,85.92
2022-11-19T04:45:29.471Z,86.11
2022-11-19T04:47:57.540Z,86.24
2022-11-19T04:50:26.630Z,86.46
2022-11-19T04:52:55.709Z,86.53
2022-11-19T04:55:23.804Z,86.32
2022-11-19T04:57:53.112Z,86.17
2022-11-19T05:00:21.478Z,86.39
2022-11-19T05:02:49.448Z,86.54
2022-11-19T05:05:17.518Z,86.59
2022-11-19T05:08:12.780Z,86.94
2022-11-19T05:10:44.696Z,86.90
2022-11-19T05:13:15.123Z,86.84
2022-11-19T05:15:43.191Z,86.77
2022-11-19T05:18:13.035Z,86.75
2022-11-19T05:20:41.279Z,86.65
2022-11-19T05:23:10.484Z,86.59
2022-11-19T05:25:38.445Z,86.62
2022-11-19T05:28:06.725Z,86.51
2022-11-19T05:30:36.849Z,86.21
2022-11-19T05:33:05.434Z,86.13
2022-11-19T05:35:33.517Z,86.05
2022-11-19T05:38:01.987Z,85.90
2022-11-19T05:40:33.541Z,85.86
2022-11-19T05:43:07.925Z,85.87
2022-11-19T05:45:36.439Z,85.86
2022-11-19T05:48:07.000Z,85.80
2022-11-19T05:50:35.141Z,85.73
2022-11-19T05:53:05.265Z,85.72
2022-11-19T05:55:33.330Z,85.74
2022-11-19T05:58:01.416Z,85.75
2022-11-19T06:00:29.488Z,85.80
2022-11-19T06:02:59.749Z,85.89
2022-11-19T06:05:28.695Z,86.08
2022-11-19T06:08:01.441Z,86.29
2022-11-19T06:10:56.579Z,86.37
2022-11-19T06:13:24.651Z,86.49
2022-11-19T06:15:52.996Z,86.42
2022-11-19T06:18:21.105Z,86.24
2022-11-19T06:20:49.282Z,85.94
2022-11-19T06:23:17.349Z,85.78
2022-11-19T06:25:49.411Z,85.62
2022-11-19T06:28:17.806Z,85.47
2022-11-19T06:30:45.721Z,85.25
2022-11-19T06:33:13.766Z,85.25
2022-11-19T06:35:41.703Z,85.21
2022-11-19T06:38:09.886Z,85.15
2022-11-19T06:40:38.052Z,85.01
2022-11-19T06:43:06.339Z,84.82
2022-11-19T06:45:34.571Z,84.94
2022-11-19T06:48:05.039Z,85.14
2022-11-19T06:50:38.446Z,85.13
2022-11-19T06:53:06.406Z,85.18
2022-11-19T06:55:34.884Z,85.13
2022-11-19T06:58:04.282Z,84.74
2022-11-19T07:00:36.358Z,84.99
2022-11-19T07:03:04.630Z,84.84
2022-11-19T07:05:33.112Z,84.69
2022-11-19T07:08:03.181Z,84.92
2022-11-19T07:10:33.465Z,85.10
2022-11-19T07:13:02.463Z,84.91
2022-11-19T07:15:30.834Z,84.61
2022-11-19T07:17:58.743Z,84.53
2022-11-19T07:20:26.650Z,84.42
2022-11-19T07:22:58.936Z,84.49
2022-11-19T07:25:28.442Z,84.37
2022-11-19T07:27:56.568Z,84.13
2022-11-19T07:30:24.891Z,84.28
2022-11-19T07:32:53.767Z,84.20
2022-11-19T07:35:21.950Z,83.98
2022-11-19T07:37:50.027Z,84.05
2022-11-19T07:40:18.402Z,84.07
2022-11-19T07:42:49.203Z,84.06
2022-11-19T07:45:22.653Z,83.96
2022-11-19T07:47:50.623Z,83.93
2022-11-19T07:50:19.094Z,84.00
2022-11-19T07:54:05.193Z,83.89
2022-11-19T07:56:34.180Z,83.49
2022-11-19T07:59:02.363Z,82.99
2022-11-19T08:01:30.599Z,83.20
2022-11-19T08:04:23.995Z,83.35
2022-11-19T08:06:52.183Z,83.44
2022-11-19T08:09:47.640Z,83.40
2022-11-19T08:13:03.364Z,83.28
2022-11-19T08:15:33.726Z,83.53
2022-11-19T08:18:52.262Z,83.77
2022-11-19T08:25:58.439Z,83.56
2022-11-19T08:28:27.756Z,83.23
2022-11-19T08:30:55.939Z,83.33
2022-11-19T08:33:24.008Z,83.23
2022-11-19T08:36:17.060Z,82.96
2022-11-19T08:39:39.607Z,83.33
2022-11-19T08:42:30.206Z,83.23
2022-11-19T08:44:58.886Z,83.49
2022-11-19T08:47:27.069Z,83.39
2022-11-19T08:49:55.347Z,83.41
2022-11-19T08:52:57.415Z,83.56
2022-11-19T08:56:21.090Z,83.57
2022-11-19T08:58:49.567Z,83.31
2022-11-19T09:01:18.456Z,83.26
2022-11-19T09:04:17.757Z,83.25
2022-11-19T09:06:49.321Z,83.10
2022-11-19T09:09:22.431Z,83.04
2022-11-19T09:11:56.334Z,83.07
2022-11-19T09:14:24.385Z,82.73
2022-11-19T09:16:52.487Z,82.63
2022-11-19T09:19:20.465Z,82.81
2022-11-19T09:21:49.160Z,82.69
2022-11-19T09:24:19.930Z,82.64
2022-11-19T09:26:52.645Z,82.77
2022-11-19T09:29:21.437Z,82.88
2022-11-19T09:31:49.605Z,82.97
2022-11-19T09:34:21.557Z,82.94
2022-11-19T09:36:56.999Z,82.92
2022-11-19T09:39:24.970Z,82.99
2022-11-19T09:42:11.592Z,82.90
2022-11-19T09:44:42.518Z,83.04
2022-11-19T09:47:45.819Z,83.03
2022-11-19T09:50:23.039Z,83.01
2022-11-19T09:53:12.482Z,83.04
2022-11-19T09:55:45.276Z,83.20
2022-11-19T09:58:42.079Z,83.15
2022-11-19T10:01:18.474Z,83.13
2022-11-19T10:03:53.506Z,83.05
2022-11-19T10:06:34.892Z,83.08
2022-11-19T10:09:10.358Z,83.23
2022-11-19T10:11:58.479Z,83.15
2022-11-19T10:14:33.617Z,83.09
2022-11-19T10:17:27.909Z,83.11
2022-11-19T10:20:08.729Z,83.24
2022-11-19T10:22:36.868Z,83.36
2022-11-19T10:25:36.259Z,83.64
2022-11-19T10:28:13.537Z,84.04
2022-11-19T10:30:48.474Z,83.79
2022-11-19T10:33:34.137Z,83.33
2022-11-19T10:36:08.270Z,83.00
2022-11-19T10:39:09.926Z,82.97
2022-11-19T10:41:50.704Z,82.78
2022-11-19T10:44:42.237Z,82.88
2022-11-19T10:47:29.240Z,82.53
2022-11-19T10:49:57.617Z,82.43
2022-11-19T10:52:32.056Z,81.86
2022-11-19T10:55:16.292Z,81.67
2022-11-19T10:57:46.805Z,81.77
2022-11-19T11:00:16.970Z,80.43
2022-11-19T11:02:49.826Z,80.60
2022-11-19T11:05:19.090Z,80.77
2022-11-19T11:07:50.671Z,81.05
2022-11-19T11:10:37.184Z,81.09
2022-11-19T11:13:43.556Z,81.14
2022-11-19T11:16:17.007Z,81.00
2022-11-19T11:18:46.365Z,81.00
2022-11-19T11:21:38.491Z,80.81
2022-11-19T11:24:07.773Z,80.88
2022-11-19T11:26:38.012Z,80.92
2022-11-19T11:29:14.076Z,80.83
2022-11-19T11:31:47.466Z,80.49
2022-11-19T12:13:28.105Z,81.79
2022-11-19T12:16:07.249Z,81.68
2022-11-19T12:19:23.128Z,81.62
2022-11-19T12:22:30.616Z,81.70
2022-11-19T12:25:25.012Z,81.71
2022-11-19T12:28:21.036Z,81.63
2022-11-19T12:31:17.273Z,81.75
2022-11-19T12:33:45.542Z,81.81
2022-11-19T12:36:30.820Z,81.85
2022-11-19T12:39:27.154Z,81.88
2022-11-19T12:42:24.926Z,81.88
2022-11-19T12:45:03.646Z,81.85
2022-11-19T12:47:44.856Z,81.81
2022-11-19T12:50:26.928Z,81.75
2022-11-19T12:53:30.124Z,81.59
2022-11-19T12:56:25.020Z,81.62
2022-11-19T12:58:55.956Z,81.42
2022-11-19T13:01:53.940Z,81.33
2022-11-19T13:04:24.982Z,81.22
2022-11-19T13:07:24.737Z,81.08
2022-11-19T13:10:05.839Z,81.26
2022-11-19T13:12:41.758Z,81.32
2022-11-19T13:15:27.301Z,81.44
2022-11-19T13:17:58.811Z,81.52
2022-11-19T13:20:31.601Z,81.34
2022-11-19T13:23:04.426Z,81.22
2022-11-19T13:25:41.928Z,81.13
2022-11-19T13:28:36.606Z,81.28
2022-11-19T13:31:13.496Z,81.38
2022-11-19T13:34:06.251Z,81.50
2022-11-19T13:36:50.293Z,81.49
2022-11-19T13:39:36.388Z,81.45
2022-11-19T13:42:26.310Z,81.43
2022-11-19T13:44:54.642Z,81.16
2022-11-19T13:47:34.546Z,81.00
2022-11-19T13:50:33.391Z,80.61
2022-11-19T13:53:21.196Z,80.56
2022-11-19T13:55:57.247Z,80.69
2022-11-19T13:58:40.054Z,80.84
2022-11-19T14:01:15.489Z,80.76
2022-11-19T14:03:58.834Z,80.45
2022-11-19T14:06:57.891Z,80.46
2022-11-19T14:09:50.208Z,80.71
2022-11-19T14:12:25.660Z,80.83
2022-11-19T14:15:44.005Z,80.82
2022-11-19T14:18:50.171Z,80.75
2022-11-19T14:22:07.775Z,80.83
2022-11-19T14:24:56.584Z,80.84
2022-11-19T14:27:28.323Z,80.94
2022-11-19T14:30:41.965Z,80.90
2022-11-19T14:33:42.670Z,80.97
2022-11-19T14:36:47.762Z,80.92
2022-11-19T14:39:23.823Z,81.03
2022-11-19T14:42:12.458Z,81.35
2022-11-19T14:45:06.017Z,81.48
2022-11-19T14:47:37.580Z,81.44
2022-11-19T14:50:29.557Z,81.47
2022-11-19T14:53:02.502Z,81.51
2022-11-19T14:55:33.173Z,81.68
2022-11-19T14:58:15.955Z,81.78
2022-11-19T15:00:44.525Z,81.78
2022-11-19T15:03:21.754Z,81.80
2022-11-19T15:05:51.285Z,81.72
2022-11-19T15:08:19.342Z,81.58
2022-11-19T15:11:07.660Z,81.59
2022-11-19T15:13:40.267Z,81.74
2022-11-19T15:16:14.425Z,81.93
2022-11-19T15:18:42.603Z,81.96
2022-11-19T15:21:39.660Z,82.12
2022-11-19T15:24:27.548Z,81.99
2022-11-19T15:27:17.986Z,81.96
2022-11-19T15:29:52.216Z,82.07
2022-11-19T15:32:59.712Z,82.26
2022-11-19T15:35:52.556Z,82.40
2022-11-19T15:38:23.734Z,82.42
2022-11-19T15:40:56.794Z,82.44
2022-11-19T15:43:31.009Z,82.70
2022-11-19T15:46:30.224Z,82.67
2022-11-19T15:49:01.961Z,82.69
2022-11-19T15:51:34.755Z,82.71
2022-11-19T15:54:06.412Z,82.61
2022-11-19T15:56:57.828Z,82.66
2022-11-19T15:59:27.627Z,82.69
2022-11-19T16:02:04.696Z,82.73
2022-11-19T16:04:38.939Z,82.71
2022-11-19T16:07:09.065Z,82.71
2022-11-19T16:09:38.111Z,82.72
2022-11-19T16:12:24.924Z,82.62
2022-11-19T16:15:12.386Z,82.68
2022-11-19T16:17:47.635Z,82.63
2022-11-19T16:20:24.306Z,82.67
2022-11-19T16:23:01.081Z,82.79
2022-11-19T16:25:35.771Z,83.40
2022-11-19T16:28:12.834Z,83.29
2022-11-19T16:30:54.170Z,83.17
2022-11-19T16:33:29.546Z,83.16
2022-11-19T16:36:13.247Z,83.01
2022-11-19T16:38:45.014Z,83.02
2022-11-19T16:41:33.155Z,83.10
2022-11-19T16:44:21.983Z,83.08
2022-11-19T16:46:50.798Z,83.21
2022-11-19T16:49:33.410Z,83.25
2022-11-19T16:52:03.617Z,83.36
2022-11-19T16:54:51.065Z,83.27
2022-11-19T16:57:21.437Z,83.21
2022-11-19T16:59:57.131Z,83.25
2022-11-19T17:02:32.079Z,83.23
2022-11-19T17:05:29.550Z,83.28
2022-11-19T17:08:21.369Z,83.32
2022-11-19T17:10:49.899Z,83.37
2022-11-19T17:13:20.795Z,83.32
2022-11-19T17:15:51.676Z,83.35
2022-11-19T17:18:26.344Z,83.46
2022-11-19T17:21:31.075Z,83.51
2022-11-19T17:23:59.259Z,83.72
2022-11-19T17:26:28.147Z,83.76
2022-11-19T17:29:10.816Z,83.83
2022-11-19T17:31:50.402Z,83.89
2022-11-19T17:34:49.199Z,83.81
2022-11-19T17:37:17.266Z,83.73
2022-11-19T17:39:46.978Z,83.75
2022-11-19T17:42:33.693Z,83.79
2022-11-19T17:45:06.013Z,83.82
2022-11-19T17:47:37.510Z,83.81
2022-11-19T17:50:05.884Z,83.98
2022-11-19T17:52:34.060Z,84.04
2022-11-19T17:55:19.771Z,84.13
2022-11-19T17:57:48.938Z,84.18
2022-11-19T18:00:18.317Z,84.27
2022-11-19T18:02:48.805Z,84.27
2022-11-19T18:05:20.083Z,84.22
2022-11-19T18:07:48.714Z,84.11
2022-11-19T18:10:16.706Z,84.23
2022-11-19T18:12:44.847Z,84.10
2022-11-19T18:15:18.959Z,84.05
2022-11-19T18:17:47.552Z,84.16
2022-11-19T18:20:15.790Z,84.18
2022-11-19T18:22:43.831Z,84.26
2022-11-19T18:25:21.965Z,84.29
2022-11-19T18:27:50.119Z,84.34
2022-11-19T18:30:18.071Z,84.46
2022-11-19T18:32:45.978Z,84.49
2022-11-19T18:35:16.940Z,84.60
2022-11-19T18:37:45.523Z,84.64
2022-11-19T18:40:14.559Z,84.59
2022-11-19T18:43:01.175Z,84.64
2022-11-19T18:45:29.850Z,84.74
2022-11-19T18:47:57.854Z,84.75
2022-11-19T18:50:29.931Z,84.76
2022-11-19T18:52:58.440Z,84.75
2022-11-19T18:55:27.438Z,84.65
2022-11-19T18:57:55.346Z,84.63
2022-11-19T19:00:24.280Z,84.65
2022-11-19T19:02:52.373Z,84.57
2022-11-19T19:05:20.549Z,84.49
2022-11-19T19:07:48.926Z,84.51
2022-11-19T19:10:16.997Z,84.56
2022-11-19T19:12:44.968Z,84.65
2022-11-19T19:15:13.251Z,84.73
2022-11-19T19:17:42.127Z,84.77
2022-11-19T19:20:11.735Z,84.59
2022-11-19T19:22:39.719Z,84.68
2022-11-19T19:25:09.219Z,84.81
2022-11-19T19:27:37.190Z,84.84
2022-11-19T19:30:06.079Z,84.89
2022-11-19T19:32:34.451Z,84.92
2022-11-19T19:35:02.631Z,85.14
2022-11-19T19:37:31.037Z,85.24
2022-11-19T19:39:59.589Z,85.23
2022-11-19T19:42:28.896Z,85.08
2022-11-19T19:44:58.840Z,84.96
2022-11-19T19:47:26.975Z,84.95
2022-11-19T19:49:55.363Z,85.07
2022-11-19T19:52:23.455Z,85.05
2022-11-19T19:54:51.818Z,84.88
2022-11-19T19:57:20.404Z,84.81
2022-11-19T19:59:48.646Z,84.74
2022-11-19T20:02:16.885Z,85.05
2022-11-19T20:04:45.951Z,85.01
2022-11-19T20:07:14.639Z,84.81
2022-11-19T20:09:42.799Z,84.77
2022-11-19T20:12:10.979Z,85.08
2022-11-19T20:14:39.558Z,85.26
2022-11-19T20:17:07.590Z,85.39
2022-11-19T20:19:36.223Z,85.65
2022-11-19T20:22:04.394Z,85.63
2022-11-19T20:24:32.365Z,85.71
2022-11-19T20:27:00.990Z,85.76
2022-11-19T20:29:30.065Z,85.63
2022-11-19T20:31:58.317Z,85.59
2022-11-19T20:34:26.501Z,85.60
2022-11-19T20:36:54.634Z,85.46
2022-11-19T20:39:22.837Z,85.33
2022-11-19T20:42:09.866Z,85.47
2022-11-19T20:44:37.861Z,85.38
2022-11-19T20:47:06.004Z,85.38
2022-11-19T20:49:38.129Z,85.43
2022-11-19T20:52:07.848Z,85.56
2022-11-19T20:54:36.161Z,85.74
2022-11-19T20:57:04.532Z,85.78
2022-11-19T20:59:32.617Z,86.14
2022-11-19T21:02:00.781Z,86.05
2022-11-19T21:04:29.776Z,86.01
2022-11-19T21:06:57.877Z,86.04
2022-11-19T21:09:26.327Z,85.99
2022-11-19T21:11:55.094Z,85.86
2022-11-19T21:14:23.009Z,85.80
2022-11-19T21:16:51.054Z,86.00
2022-11-19T21:19:19.553Z,86.08
2022-11-19T21:21:48.440Z,86.15
2022-11-19T21:24:16.605Z,86.26
2022-11-19T21:26:45.084Z,86.33
2022-11-19T21:29:13.137Z,86.46
2022-11-19T21:31:42.766Z,86.62
2022-11-19T21:34:13.193Z,86.56
2022-11-19T21:36:42.797Z,86.48
2022-11-19T21:39:11.695Z,86.39
2022-11-19T21:41:39.769Z,86.36
2022-11-19T21:44:08.240Z,86.24
2022-11-19T21:46:36.205Z,86.21
2022-11-19T21:49:04.491Z,86.24
2022-11-19T21:51:32.524Z,86.27
2022-11-19T21:54:00.638Z,86.22
2022-11-19T21:56:33.876Z,86.20
2022-11-19T21:59:05.856Z,86.10
2022-11-19T22:01:34.369Z,86.09
2022-11-19T22:04:02.862Z,86.14
2022-11-19T22:06:32.149Z,86.12
2022-11-19T22:09:00.435Z,86.28
2022-11-19T22:11:28.769Z,86.36
2022-11-19T22:14:05.920Z,86.13
2022-11-19T22:16:37.252Z,85.98
2022-11-19T22:19:05.959Z,85.92
2022-11-19T22:21:34.738Z,85.73
2022-11-19T22:24:03.108Z,85.75
2022-11-19T22:26:31.164Z,85.68
2022-11-19T22:28:59.111Z,85.69
2022-11-19T22:31:27.296Z,85.65
2022-11-19T22:33:55.748Z,85.77
2022-11-19T22:36:23.964Z,85.81
2022-11-19T22:38:52.673Z,85.66
2022-11-19T22:41:22.264Z,85.56
2022-11-19T22:43:51.242Z,85.67
2022-11-19T22:46:20.048Z,85.72
2022-11-19T22:48:48.318Z,85.74
2022-11-19T22:51:22.954Z,85.87
2022-11-19T22:53:53.275Z,85.92
2022-11-19T22:56:27.486Z,85.98
2022-11-19T22:58:56.384Z,85.82
2022-11-19T23:01:33.047Z,85.94
2022-11-19T23:04:05.932Z,86.09
2022-11-19T23:06:35.940Z,86.26
2022-11-19T23:09:05.981Z,86.18
2022-11-19T23:11:53.188Z,86.26
2022-11-19T23:14:21.572Z,86.23
2022-11-19T23:16:49.706Z,86.27
2022-11-19T23:19:19.525Z,86.40
2022-11-19T23:21:48.150Z,86.57
2022-11-19T23:24:16.359Z,86.63
2022-11-19T23:26:44.494Z,86.70
2022-11-19T23:29:13.385Z,86.83
2022-11-19T23:31:41.561Z,86.97
2022-11-19T23:34:09.529Z,87.54
2022-11-19T23:36:40.453Z,87.59
2022-11-19T23:39:14.785Z,87.54
2022-11-19T23:41:43.977Z,87.59
2022-11-19T23:44:12.514Z,87.56
2022-11-19T23:46:40.909Z,87.72
2022-11-19T23:49:10.894Z,87.68
2022-11-19T23:51:40.287Z,87.63
2022-11-19T23:54:08.448Z,87.59
2022-11-19T23:56:36.735Z,87.59
2022-11-19T23:59:06.345Z,87.53
